SWA705 KBNA-KMKE
Flight info
| Callsign | SWA705 |
|---|---|
| Flight time | N/A |
| Altitude | 35000 |
| Route | PARDN4 NAKIY FAM FTZ UIN LEEDN GOPAC3 |
| Aircraft | B38M/M-SDE1FGHILORVWXY/HB1 |
Departure
| Time | N/A |
|---|---|
| Airport | Nashville International Airport (KBNA) |
Arrival
| Time | 2026-04-14 14:25 |
|---|---|
| Airport | General Mitchell International Airport (KMKE) |
| Time | Latitude | Longitude | Altitude | Speed | Heading |
|---|---|---|---|---|---|
| 2026-04-14 14:22 | 43.06456 | -87.87473 | 2859 ft | 167 kts | 195° |
| 2026-04-14 14:22 | 43.05274 | -87.87672 | 2656 ft | 176 kts | 195° |
| 2026-04-14 14:23 | 43.04033 | -87.87884 | 2404 ft | 183 kts | 194° |
| 2026-04-14 14:23 | 43.02784 | -87.88096 | 2165 ft | 182 kts | 194° |
| 2026-04-14 14:23 | 43.01552 | -87.88304 | 1959 ft | 169 kts | 194° |
| 2026-04-14 14:23 | 43.00453 | -87.88489 | 1750 ft | 149 kts | 194° |
| 2026-04-14 14:24 | 42.99464 | -87.88651 | 1485 ft | 137 kts | 188° |
| 2026-04-14 14:24 | 42.98593 | -87.88765 | 1440 ft | 124 kts | 194° |
| 2026-04-14 14:24 | 42.97756 | -87.88952 | 1157 ft | 119 kts | 191° |
| 2026-04-14 14:24 | 42.96925 | -87.89093 | 1015 ft | 121 kts | 188° |
| 2026-04-14 14:25 | 42.96097 | -87.89246 | 853 ft | 120 kts | 188° |
| 2026-04-14 14:25 | 42.95274 | -87.89386 | 720 ft | 115 kts | 189° |
| 2026-04-14 14:25 | 42.94585 | -87.89503 | 698 ft | 76 kts | 186° |
| 2026-04-14 14:25 | 42.94247 | -87.89562 | 700 ft | 36 kts | 187° |
| 2026-04-14 14:26 | 42.94079 | -87.89652 | 693 ft | 16 kts | 222° |
| 2026-04-14 14:26 | 42.94035 | -87.89770 | 699 ft | 12 kts | 265° |
| 2026-04-14 14:26 | 42.94071 | -87.89863 | 696 ft | 11 kts | 339° |
| 2026-04-14 14:26 | 42.94148 | -87.89888 | 698 ft | 13 kts | 349° |
| 2026-04-14 14:27 | 42.94248 | -87.89912 | 696 ft | 16 kts | 349° |
| 2026-04-14 14:27 | 42.94369 | -87.89938 | 698 ft | 19 kts | 353° |
| 2026-04-14 14:27 | 42.94461 | -87.89970 | 699 ft | 13 kts | 342° |
| 2026-04-14 14:27 | 42.94536 | -87.89918 | 697 ft | 13 kts | 65° |
| 2026-04-14 14:28 | 42.94586 | -87.89795 | 700 ft | 11 kts | 57° |
| 2026-04-14 14:28 | 42.94663 | -87.89741 | 695 ft | 15 kts | 9° |
| 2026-04-14 14:28 | 42.94777 | -87.89722 | 693 ft | 14 kts | 7° |
| 2026-04-14 14:28 | 42.94893 | -87.89705 | 693 ft | 17 kts | 1° |
| 2026-04-14 14:29 | 42.94959 | -87.89745 | 690 ft | 13 kts | 310° |
| 2026-04-14 14:29 | 42.95045 | -87.89821 | 689 ft | 12 kts | 331° |
| 2026-04-14 14:29 | 42.95112 | -87.89906 | 693 ft | 15 kts | 313° |
| 2026-04-14 14:29 | 42.95187 | -87.90019 | 693 ft | 13 kts | 312° |
| 2026-04-14 14:30 | 42.95206 | -87.90108 | 690 ft | 11 kts | 242° |
| 2026-04-14 14:30 | 42.95140 | -87.90173 | 690 ft | 9 kts | 210° |
| 2026-04-14 14:30 | 42.95089 | -87.90162 | 692 ft | 6 kts | 130° |
| 2026-04-14 14:30 | 42.95081 | -87.90144 | 692 ft | 2 kts | 120° |
| 2026-04-14 14:31 | 42.95079 | -87.90140 | 693 ft | 0 kts | 120° |